sensor_id;sensor_type;location;lat;lon;timestamp;pressure;altitude;pressure_sealevel;temperature;humidity
76337;BME280;65157;50.082;18.178;2024-01-11T00:01:59;100621.86;;;-11.09;72.91
76337;BME280;65157;50.082;18.178;2024-01-11T00:04:26;100620.02;;;-11.11;73.16
76337;BME280;65157;50.082;18.178;2024-01-11T00:06:52;100618.48;;;-11.11;73.04
76337;BME280;65157;50.082;18.178;2024-01-11T00:09:19;100611.10;;;-11.12;73.07
76337;BME280;65157;50.082;18.178;2024-01-11T00:11:45;100604.64;;;-11.12;73.34
76337;BME280;65157;50.082;18.178;2024-01-11T00:14:12;100608.37;;;-11.10;72.84
76337;BME280;65157;50.082;18.178;2024-01-11T00:16:39;100608.44;;;-11.11;72.92
76337;BME280;65157;50.082;18.178;2024-01-11T00:19:05;100603.79;;;-11.12;72.84
76337;BME280;65157;50.082;18.178;2024-01-11T00:21:32;100603.70;;;-11.13;72.93
76337;BME280;65157;50.082;18.178;2024-01-11T00:23:58;100601.14;;;-11.13;73.06
76337;BME280;65157;50.082;18.178;2024-01-11T00:26:25;100599.84;;;-11.15;73.07
76337;BME280;65157;50.082;18.178;2024-01-11T00:28:52;100598.13;;;-11.15;73.29
76337;BME280;65157;50.082;18.178;2024-01-11T00:31:18;100596.59;;;-11.15;73.23
76337;BME280;65157;50.082;18.178;2024-01-11T00:33:45;100579.03;;;-11.23;73.16
76337;BME280;65157;50.082;18.178;2024-01-11T00:36:17;100593.36;;;-11.15;73.10
76337;BME280;65157;50.082;18.178;2024-01-11T00:38:44;100595.21;;;-11.15;73.00
76337;BME280;65157;50.082;18.178;2024-01-11T00:41:11;100586.73;;;-11.20;72.83
76337;BME280;65157;50.082;18.178;2024-01-11T00:43:37;100571.54;;;-11.20;73.46
76337;BME280;65157;50.082;18.178;2024-01-11T00:46:04;100566.83;;;-11.19;73.93
76337;BME280;65157;50.082;18.178;2024-01-11T00:48:30;100566.05;;;-11.18;74.24
76337;BME280;65157;50.082;18.178;2024-01-11T00:50:57;100563.90;;;-11.17;74.46
76337;BME280;65157;50.082;18.178;2024-01-11T00:53:24;100561.83;;;-11.15;74.25
76337;BME280;65157;50.082;18.178;2024-01-11T00:55:51;100554.17;;;-11.15;74.55
76337;BME280;65157;50.082;18.178;2024-01-11T00:58:17;100549.61;;;-11.17;74.35
76337;BME280;65157;50.082;18.178;2024-01-11T01:00:44;100544.64;;;-11.20;74.35
76337;BME280;65157;50.082;18.178;2024-01-11T01:03:10;100542.86;;;-11.24;74.31
76337;BME280;65157;50.082;18.178;2024-01-11T01:05:37;100548.55;;;-11.22;74.36
76337;BME280;65157;50.082;18.178;2024-01-11T01:08:04;100550.27;;;-11.20;74.27
76337;BME280;65157;50.082;18.178;2024-01-11T01:10:31;100545.65;;;-11.18;74.31
76337;BME280;65157;50.082;18.178;2024-01-11T01:12:57;100550.48;;;-11.17;74.32
76337;BME280;65157;50.082;18.178;2024-01-11T01:15:24;100548.31;;;-11.16;74.35
76337;BME280;65157;50.082;18.178;2024-01-11T01:17:50;100545.98;;;-11.15;74.35
76337;BME280;65157;50.082;18.178;2024-01-11T01:20:17;100549.24;;;-11.15;74.37
76337;BME280;65157;50.082;18.178;2024-01-11T01:22:44;100548.00;;;-11.16;74.29
76337;BME280;65157;50.082;18.178;2024-01-11T01:25:10;100540.93;;;-11.17;74.11
76337;BME280;65157;50.082;18.178;2024-01-11T01:27:37;100540.77;;;-11.16;74.18
76337;BME280;65157;50.082;18.178;2024-01-11T01:30:04;100541.83;;;-11.16;74.28
76337;BME280;65157;50.082;18.178;2024-01-11T01:32:31;100537.70;;;-11.17;74.13
76337;BME280;65157;50.082;18.178;2024-01-11T01:34:58;100541.99;;;-11.16;74.20
76337;BME280;65157;50.082;18.178;2024-01-11T01:37:24;100543.11;;;-11.17;74.16
76337;BME280;65157;50.082;18.178;2024-01-11T01:39:51;100548.16;;;-11.16;74.24
76337;BME280;65157;50.082;18.178;2024-01-11T01:42:18;100542.95;;;-11.17;74.30
76337;BME280;65157;50.082;18.178;2024-01-11T01:44:44;100535.87;;;-11.19;74.16
76337;BME280;65157;50.082;18.178;2024-01-11T01:47:11;100536.98;;;-11.17;74.26
76337;BME280;65157;50.082;18.178;2024-01-11T01:49:38;100543.36;;;-11.16;74.58
76337;BME280;65157;50.082;18.178;2024-01-11T01:52:06;100541.08;;;-11.17;74.65
76337;BME280;65157;50.082;18.178;2024-01-11T01:54:34;100536.98;;;-11.17;74.37
76337;BME280;65157;50.082;18.178;2024-01-11T01:57:01;100537.73;;;-11.16;74.70
76337;BME280;65157;50.082;18.178;2024-01-11T01:59:29;100539.17;;;-11.15;74.60
76337;BME280;65157;50.082;18.178;2024-01-11T02:01:58;100531.95;;;-11.16;74.55
76337;BME280;65157;50.082;18.178;2024-01-11T02:04:25;100533.99;;;-11.13;74.51
76337;BME280;65157;50.082;18.178;2024-01-11T02:06:53;100534.48;;;-11.11;74.98
76337;BME280;65157;50.082;18.178;2024-01-11T02:09:20;100534.95;;;-11.09;75.00
76337;BME280;65157;50.082;18.178;2024-01-11T02:11:47;100526.42;;;-11.09;74.73
76337;BME280;65157;50.082;18.178;2024-01-11T02:14:14;100524.92;;;-11.14;74.17
76337;BME280;65157;50.082;18.178;2024-01-11T02:16:41;100523.54;;;-11.20;74.23
76337;BME280;65157;50.082;18.178;2024-01-11T02:19:13;100517.55;;;-11.20;74.13
76337;BME280;65157;50.082;18.178;2024-01-11T02:21:43;100512.80;;;-11.20;74.53
76337;BME280;65157;50.082;18.178;2024-01-11T02:24:13;100511.88;;;-11.21;74.80
76337;BME280;65157;50.082;18.178;2024-01-11T02:27:02;100515.20;;;-11.19;74.85
76337;BME280;65157;50.082;18.178;2024-01-11T02:29:30;100514.96;;;-11.18;74.98
76337;BME280;65157;50.082;18.178;2024-01-11T02:32:01;100517.69;;;-11.18;75.14
76337;BME280;65157;50.082;18.178;2024-01-11T02:34:29;100524.85;;;-11.18;75.14
76337;BME280;65157;50.082;18.178;2024-01-11T02:36:55;100521.27;;;-11.18;75.15
76337;BME280;65157;50.082;18.178;2024-01-11T02:39:23;100513.71;;;-11.22;74.82
76337;BME280;65157;50.082;18.178;2024-01-11T02:41:52;100519.58;;;-11.21;75.00
76337;BME280;65157;50.082;18.178;2024-01-11T02:44:19;100528.75;;;-11.21;74.97
76337;BME280;65157;50.082;18.178;2024-01-11T02:46:46;100526.79;;;-11.22;74.94
76337;BME280;65157;50.082;18.178;2024-01-11T02:49:12;100521.48;;;-11.23;74.81
76337;BME280;65157;50.082;18.178;2024-01-11T02:51:39;100519.86;;;-11.24;74.92
76337;BME280;65157;50.082;18.178;2024-01-11T02:54:06;100519.84;;;-11.24;75.11
76337;BME280;65157;50.082;18.178;2024-01-11T02:56:33;100520.42;;;-11.23;75.12
76337;BME280;65157;50.082;18.178;2024-01-11T02:59:00;100514.98;;;-11.26;75.06
76337;BME280;65157;50.082;18.178;2024-01-11T03:01:26;100521.05;;;-11.24;75.19
76337;BME280;65157;50.082;18.178;2024-01-11T03:03:54;100521.70;;;-11.24;75.00
76337;BME280;65157;50.082;18.178;2024-01-11T03:06:21;100522.09;;;-11.26;75.08
76337;BME280;65157;50.082;18.178;2024-01-11T03:08:50;100523.86;;;-11.25;74.85
76337;BME280;65157;50.082;18.178;2024-01-11T03:11:17;100524.69;;;-11.28;74.80
76337;BME280;65157;50.082;18.178;2024-01-11T03:13:43;100527.14;;;-11.30;74.75
76337;BME280;65157;50.082;18.178;2024-01-11T03:16:10;100532.61;;;-11.29;74.85
76337;BME280;65157;50.082;18.178;2024-01-11T03:18:36;100534.77;;;-11.30;74.89
76337;BME280;65157;50.082;18.178;2024-01-11T03:21:03;100539.90;;;-11.30;74.82
76337;BME280;65157;50.082;18.178;2024-01-11T03:23:30;100536.00;;;-11.30;74.63
76337;BME280;65157;50.082;18.178;2024-01-11T03:25:57;100528.71;;;-11.32;74.36
76337;BME280;65157;50.082;18.178;2024-01-11T03:28:23;100520.86;;;-11.37;74.37
76337;BME280;65157;50.082;18.178;2024-01-11T03:30:50;100520.20;;;-11.42;74.28
76337;BME280;65157;50.082;18.178;2024-01-11T03:33:16;100520.89;;;-11.44;74.32
76337;BME280;65157;50.082;18.178;2024-01-11T03:35:43;100515.16;;;-11.46;74.38
76337;BME280;65157;50.082;18.178;2024-01-11T03:38:10;100509.32;;;-11.47;74.38
76337;BME280;65157;50.082;18.178;2024-01-11T03:40:36;100509.70;;;-11.46;74.50
76337;BME280;65157;50.082;18.178;2024-01-11T03:43:03;100507.84;;;-11.46;74.66
76337;BME280;65157;50.082;18.178;2024-01-11T03:45:30;100512.79;;;-11.44;74.49
76337;BME280;65157;50.082;18.178;2024-01-11T03:47:56;100507.72;;;-11.45;74.31
76337;BME280;65157;50.082;18.178;2024-01-11T03:50:23;100502.63;;;-11.48;74.51
76337;BME280;65157;50.082;18.178;2024-01-11T03:52:49;100500.98;;;-11.47;74.43
76337;BME280;65157;50.082;18.178;2024-01-11T03:55:16;100499.96;;;-11.50;74.22
76337;BME280;65157;50.082;18.178;2024-01-11T03:57:42;100498.36;;;-11.56;74.10
76337;BME280;65157;50.082;18.178;2024-01-11T04:00:09;100488.90;;;-11.60;74.24
76337;BME280;65157;50.082;18.178;2024-01-11T04:02:36;100484.59;;;-11.63;74.27
76337;BME280;65157;50.082;18.178;2024-01-11T04:05:03;100485.42;;;-11.67;74.20
76337;BME280;65157;50.082;18.178;2024-01-11T04:07:30;100487.88;;;-11.65;74.09
76337;BME280;65157;50.082;18.178;2024-01-11T04:09:56;100478.87;;;-11.68;73.88
76337;BME280;65157;50.082;18.178;2024-01-11T04:12:23;100467.23;;;-11.77;73.92
76337;BME280;65157;50.082;18.178;2024-01-11T04:14:49;100480.13;;;-11.77;73.96
76337;BME280;65157;50.082;18.178;2024-01-11T04:17:16;100470.18;;;-11.91;73.96
76337;BME280;65157;50.082;18.178;2024-01-11T04:19:43;100485.88;;;-11.88;74.13
76337;BME280;65157;50.082;18.178;2024-01-11T04:22:10;100484.95;;;-11.89;74.19
76337;BME280;65157;50.082;18.178;2024-01-11T04:24:36;100484.91;;;-11.87;74.30
76337;BME280;65157;50.082;18.178;2024-01-11T04:27:03;100487.74;;;-11.86;74.11
76337;BME280;65157;50.082;18.178;2024-01-11T04:29:29;100492.16;;;-11.86;74.47
76337;BME280;65157;50.082;18.178;2024-01-11T04:31:56;100499.79;;;-11.81;74.08
76337;BME280;65157;50.082;18.178;2024-01-11T04:34:23;100499.41;;;-11.79;74.22
76337;BME280;65157;50.082;18.178;2024-01-11T04:36:49;100499.85;;;-11.78;74.10
76337;BME280;65157;50.082;18.178;2024-01-11T04:39:16;100495.92;;;-11.80;73.94
76337;BME280;65157;50.082;18.178;2024-01-11T04:41:43;100496.25;;;-11.83;73.75
76337;BME280;65157;50.082;18.178;2024-01-11T04:44:10;100490.92;;;-11.84;73.77
76337;BME280;65157;50.082;18.178;2024-01-11T04:46:36;100489.48;;;-11.85;73.88
76337;BME280;65157;50.082;18.178;2024-01-11T04:49:03;100479.69;;;-11.84;73.80
76337;BME280;65157;50.082;18.178;2024-01-11T04:51:29;100472.13;;;-11.85;73.65
76337;BME280;65157;50.082;18.178;2024-01-11T04:53:56;100468.26;;;-11.87;73.46
76337;BME280;65157;50.082;18.178;2024-01-11T04:56:23;100482.09;;;-11.89;73.71
76337;BME280;65157;50.082;18.178;2024-01-11T04:58:49;100487.85;;;-11.89;73.97
76337;BME280;65157;50.082;18.178;2024-01-11T05:01:16;100482.73;;;-11.90;73.83
76337;BME280;65157;50.082;18.178;2024-01-11T05:03:44;100480.58;;;-11.91;73.92
76337;BME280;65157;50.082;18.178;2024-01-11T05:06:16;100473.45;;;-11.91;74.01
76337;BME280;65157;50.082;18.178;2024-01-11T05:08:46;100467.02;;;-11.90;74.29
76337;BME280;65157;50.082;18.178;2024-01-11T05:11:20;100469.97;;;-11.89;74.12
76337;BME280;65157;50.082;18.178;2024-01-11T05:13:48;100468.66;;;-11.91;73.92
76337;BME280;65157;50.082;18.178;2024-01-11T05:16:22;100471.19;;;-11.92;74.35
76337;BME280;65157;50.082;18.178;2024-01-11T05:18:50;100467.59;;;-11.92;74.43
76337;BME280;65157;50.082;18.178;2024-01-11T05:21:16;100485.12;;;-11.90;74.55
76337;BME280;65157;50.082;18.178;2024-01-11T05:23:43;100492.60;;;-11.87;74.46
76337;BME280;65157;50.082;18.178;2024-01-11T05:26:10;100490.16;;;-11.85;74.50
76337;BME280;65157;50.082;18.178;2024-01-11T05:28:37;100487.53;;;-11.84;74.42
76337;BME280;65157;50.082;18.178;2024-01-11T05:31:11;100486.00;;;-11.84;74.37
76337;BME280;65157;50.082;18.178;2024-01-11T05:33:39;100480.86;;;-11.84;74.29
76337;BME280;65157;50.082;18.178;2024-01-11T05:36:06;100473.36;;;-11.84;74.46
76337;BME280;65157;50.082;18.178;2024-01-11T05:38:32;100466.41;;;-11.87;74.35
76337;BME280;65157;50.082;18.178;2024-01-11T05:41:00;100472.48;;;-11.88;74.16
76337;BME280;65157;50.082;18.178;2024-01-11T05:43:26;100459.23;;;-11.90;74.43
76337;BME280;65157;50.082;18.178;2024-01-11T05:45:53;100453.23;;;-11.88;74.44
76337;BME280;65157;50.082;18.178;2024-01-11T05:48:19;100441.63;;;-11.88;74.50
76337;BME280;65157;50.082;18.178;2024-01-11T05:50:46;100456.24;;;-11.88;74.70
76337;BME280;65157;50.082;18.178;2024-01-11T05:53:13;100456.67;;;-11.87;74.83
76337;BME280;65157;50.082;18.178;2024-01-11T05:55:40;100448.77;;;-11.86;74.87
76337;BME280;65157;50.082;18.178;2024-01-11T05:58:07;100433.67;;;-11.85;74.82
76337;BME280;65157;50.082;18.178;2024-01-11T06:00:33;100431.00;;;-11.84;75.27
76337;BME280;65157;50.082;18.178;2024-01-11T06:03:00;100427.48;;;-11.81;75.35
76337;BME280;65157;50.082;18.178;2024-01-11T06:05:27;100433.48;;;-11.80;75.76
76337;BME280;65157;50.082;18.178;2024-01-11T06:07:53;100416.48;;;-11.82;76.16
76337;BME280;65157;50.082;18.178;2024-01-11T06:10:20;100423.91;;;-11.78;76.29
76337;BME280;65157;50.082;18.178;2024-01-11T06:12:46;100422.36;;;-11.78;76.39
76337;BME280;65157;50.082;18.178;2024-01-11T06:15:13;100439.23;;;-11.76;76.75
76337;BME280;65157;50.082;18.178;2024-01-11T06:17:40;100433.93;;;-11.76;76.83
76337;BME280;65157;50.082;18.178;2024-01-11T06:20:06;100430.02;;;-11.76;77.11
76337;BME280;65157;50.082;18.178;2024-01-11T06:22:33;100437.95;;;-11.74;76.99
76337;BME280;65157;50.082;18.178;2024-01-11T06:25:00;100422.64;;;-11.71;77.20
76337;BME280;65157;50.082;18.178;2024-01-11T06:27:27;100419.57;;;-11.69;76.88
76337;BME280;65157;50.082;18.178;2024-01-11T06:29:53;100419.43;;;-11.65;76.70
76337;BME280;65157;50.082;18.178;2024-01-11T06:32:20;100410.30;;;-11.65;76.40
76337;BME280;65157;50.082;18.178;2024-01-11T06:34:46;100409.83;;;-11.66;76.02
76337;BME280;65157;50.082;18.178;2024-01-11T06:37:13;100413.24;;;-11.66;76.22
76337;BME280;65157;50.082;18.178;2024-01-11T06:39:40;100413.84;;;-11.65;76.03
76337;BME280;65157;50.082;18.178;2024-01-11T06:42:07;100411.73;;;-11.66;75.83
76337;BME280;65157;50.082;18.178;2024-01-11T06:44:33;100417.77;;;-11.65;76.03
76337;BME280;65157;50.082;18.178;2024-01-11T06:47:00;100401.49;;;-11.66;75.88
76337;BME280;65157;50.082;18.178;2024-01-11T06:49:27;100405.02;;;-11.67;75.88
76337;BME280;65157;50.082;18.178;2024-01-11T06:51:53;100410.17;;;-11.66;76.16
76337;BME280;65157;50.082;18.178;2024-01-11T06:54:20;100403.58;;;-11.68;75.97
76337;BME280;65157;50.082;18.178;2024-01-11T06:56:46;100409.67;;;-11.69;76.05
76337;BME280;65157;50.082;18.178;2024-01-11T06:59:13;100400.05;;;-11.74;75.96
76337;BME280;65157;50.082;18.178;2024-01-11T07:01:40;100403.30;;;-11.73;75.91
76337;BME280;65157;50.082;18.178;2024-01-11T07:04:07;100397.20;;;-11.75;75.80
76337;BME280;65157;50.082;18.178;2024-01-11T07:06:34;100389.71;;;-11.75;75.77
76337;BME280;65157;50.082;18.178;2024-01-11T07:09:00;100388.14;;;-11.76;75.61
76337;BME280;65157;50.082;18.178;2024-01-11T07:11:27;100387.83;;;-11.80;75.65
76337;BME280;65157;50.082;18.178;2024-01-11T07:13:54;100380.20;;;-11.83;75.99
76337;BME280;65157;50.082;18.178;2024-01-11T07:16:20;100370.10;;;-11.89;75.90
76337;BME280;65157;50.082;18.178;2024-01-11T07:18:47;100366.37;;;-11.89;76.20
76337;BME280;65157;50.082;18.178;2024-01-11T07:21:23;100360.38;;;-11.84;76.54
76337;BME280;65157;50.082;18.178;2024-01-11T07:23:50;100354.17;;;-11.82;76.62
76337;BME280;65157;50.082;18.178;2024-01-11T07:26:17;100351.79;;;-11.77;76.70
76337;BME280;65157;50.082;18.178;2024-01-11T07:28:43;100352.56;;;-11.70;76.74
76337;BME280;65157;50.082;18.178;2024-01-11T07:31:10;100355.08;;;-11.62;76.91
76337;BME280;65157;50.082;18.178;2024-01-11T07:33:37;100347.53;;;-11.56;77.16
76337;BME280;65157;50.082;18.178;2024-01-11T07:36:05;100341.86;;;-11.48;77.13
76337;BME280;65157;50.082;18.178;2024-01-11T07:38:32;100329.02;;;-11.43;77.03
76337;BME280;65157;50.082;18.178;2024-01-11T07:40:59;100325.14;;;-11.37;76.69
76337;BME280;65157;50.082;18.178;2024-01-11T07:43:25;100307.92;;;-11.24;76.44
76337;BME280;65157;50.082;18.178;2024-01-11T07:45:52;100302.81;;;-10.95;76.00
76337;BME280;65157;50.082;18.178;2024-01-11T07:48:19;100316.32;;;-10.69;75.42
76337;BME280;65157;50.082;18.178;2024-01-11T07:50:46;100315.41;;;-10.67;75.31
76337;BME280;65157;50.082;18.178;2024-01-11T07:53:12;100327.85;;;-10.61;75.20
76337;BME280;65157;50.082;18.178;2024-01-11T07:55:39;100323.50;;;-10.60;75.25
76337;BME280;65157;50.082;18.178;2024-01-11T07:58:05;100326.23;;;-10.57;75.23
76337;BME280;65157;50.082;18.178;2024-01-11T08:00:33;100329.99;;;-10.57;75.52
76337;BME280;65157;50.082;18.178;2024-01-11T08:03:00;100343.89;;;-10.50;75.86
76337;BME280;65157;50.082;18.178;2024-01-11T08:05:26;100336.73;;;-10.41;75.89
76337;BME280;65157;50.082;18.178;2024-01-11T08:07:53;100327.94;;;-10.30;76.02
76337;BME280;65157;50.082;18.178;2024-01-11T08:10:20;100316.35;;;-10.21;76.28
76337;BME280;65157;50.082;18.178;2024-01-11T08:12:47;100317.16;;;-10.10;76.21
76337;BME280;65157;50.082;18.178;2024-01-11T08:15:14;100309.05;;;-9.99;76.31
76337;BME280;65157;50.082;18.178;2024-01-11T08:17:46;100303.36;;;-9.88;76.17
76337;BME280;65157;50.082;18.178;2024-01-11T08:20:13;100287.63;;;-9.79;76.35
76337;BME280;65157;50.082;18.178;2024-01-11T08:22:43;100296.66;;;-9.69;76.26
76337;BME280;65157;50.082;18.178;2024-01-11T08:25:10;100291.16;;;-9.61;76.20
76337;BME280;65157;50.082;18.178;2024-01-11T08:27:37;100288.62;;;-9.51;76.33
76337;BME280;65157;50.082;18.178;2024-01-11T08:30:05;100287.34;;;-9.43;76.52
76337;BME280;65157;50.082;18.178;2024-01-11T08:32:32;100284.17;;;-9.35;76.46
76337;BME280;65157;50.082;18.178;2024-01-11T08:34:59;100293.02;;;-9.26;76.63
76337;BME280;65157;50.082;18.178;2024-01-11T08:37:25;100287.81;;;-9.18;76.63
76337;BME280;65157;50.082;18.178;2024-01-11T08:39:52;100276.89;;;-9.08;76.79
76337;BME280;65157;50.082;18.178;2024-01-11T08:42:18;100264.81;;;-9.00;76.75
76337;BME280;65157;50.082;18.178;2024-01-11T08:44:45;100270.67;;;-8.93;76.67
76337;BME280;65157;50.082;18.178;2024-01-11T08:47:12;100273.62;;;-8.85;76.78
76337;BME280;65157;50.082;18.178;2024-01-11T08:49:39;100264.54;;;-8.79;76.84
76337;BME280;65157;50.082;18.178;2024-01-11T08:52:06;100262.48;;;-8.69;76.86
76337;BME280;65157;50.082;18.178;2024-01-11T08:54:33;100258.42;;;-8.61;77.15
76337;BME280;65157;50.082;18.178;2024-01-11T08:57:00;100267.64;;;-8.51;77.01
76337;BME280;65157;50.082;18.178;2024-01-11T08:59:27;100270.83;;;-8.42;77.19
76337;BME280;65157;50.082;18.178;2024-01-11T09:01:53;100276.83;;;-8.31;77.26
76337;BME280;65157;50.082;18.178;2024-01-11T09:04:20;100279.23;;;-8.20;77.37
76337;BME280;65157;50.082;18.178;2024-01-11T09:06:47;100278.98;;;-8.08;77.48
76337;BME280;65157;50.082;18.178;2024-01-11T09:09:13;100277.85;;;-7.95;77.53
76337;BME280;65157;50.082;18.178;2024-01-11T09:11:40;100270.69;;;-7.84;77.32
76337;BME280;65157;50.082;18.178;2024-01-11T09:14:07;100267.77;;;-7.77;77.15
76337;BME280;65157;50.082;18.178;2024-01-11T09:16:34;100282.45;;;-7.63;77.21
76337;BME280;65157;50.082;18.178;2024-01-11T09:19:00;100283.31;;;-7.52;76.94
76337;BME280;65157;50.082;18.178;2024-01-11T09:21:27;100277.48;;;-7.41;76.91
76337;BME280;65157;50.082;18.178;2024-01-11T09:23:54;100267.70;;;-7.30;76.82
76337;BME280;65157;50.082;18.178;2024-01-11T09:26:20;100271.86;;;-7.17;76.96
76337;BME280;65157;50.082;18.178;2024-01-11T09:28:47;100280.30;;;-7.05;77.20
76337;BME280;65157;50.082;18.178;2024-01-11T09:31:14;100269.25;;;-6.95;76.91
76337;BME280;65157;50.082;18.178;2024-01-11T09:33:40;100268.70;;;-6.88;77.05
76337;BME280;65157;50.082;18.178;2024-01-11T09:36:07;100265.66;;;-6.79;77.13
76337;BME280;65157;50.082;18.178;2024-01-11T09:38:34;100261.77;;;-6.69;76.97
76337;BME280;65157;50.082;18.178;2024-01-11T09:41:10;100271.19;;;-6.58;77.04
76337;BME280;65157;50.082;18.178;2024-01-11T09:43:40;100274.76;;;-6.47;76.97
76337;BME280;65157;50.082;18.178;2024-01-11T09:46:08;100271.90;;;-6.37;77.04
76337;BME280;65157;50.082;18.178;2024-01-11T09:48:38;100262.02;;;-6.35;76.80
76337;BME280;65157;50.082;18.178;2024-01-11T09:51:09;100276.91;;;-6.19;76.90
76337;BME280;65157;50.082;18.178;2024-01-11T09:53:37;100276.91;;;-6.11;76.70
76337;BME280;65157;50.082;18.178;2024-01-11T09:56:08;100276.06;;;-6.02;76.81
76337;BME280;65157;50.082;18.178;2024-01-11T09:58:36;100268.36;;;-5.93;76.53
76337;BME280;65157;50.082;18.178;2024-01-11T10:01:07;100252.38;;;-5.88;76.64
76337;BME280;65157;50.082;18.178;2024-01-11T10:03:35;100245.88;;;-5.78;76.53
76337;BME280;65157;50.082;18.178;2024-01-11T10:06:02;100247.64;;;-5.68;76.43
76337;BME280;65157;50.082;18.178;2024-01-11T10:08:31;100234.68;;;-5.61;76.13
76337;BME280;65157;50.082;18.178;2024-01-11T10:10:58;100232.59;;;-5.57;76.23
76337;BME280;65157;50.082;18.178;2024-01-11T10:13:27;100233.73;;;-5.50;76.22
76337;BME280;65157;50.082;18.178;2024-01-11T10:18:33;100228.21;;;-5.36;76.08
76337;BME280;65157;50.082;18.178;2024-01-11T10:21:01;100233.79;;;-5.29;76.14
76337;BME280;65157;50.082;18.178;2024-01-11T10:23:28;100233.10;;;-5.20;76.39
76337;BME280;65157;50.082;18.178;2024-01-11T10:25:56;100229.02;;;-5.14;76.13
76337;BME280;65157;50.082;18.178;2024-01-11T10:28:25;100226.60;;;-5.09;75.99
76337;BME280;65157;50.082;18.178;2024-01-11T10:30:52;100225.54;;;-5.05;75.84
76337;BME280;65157;50.082;18.178;2024-01-11T10:33:19;100228.89;;;-5.03;75.92
76337;BME280;65157;50.082;18.178;2024-01-11T10:35:47;100234.27;;;-4.97;76.14
76337;BME280;65157;50.082;18.178;2024-01-11T10:38:14;100228.29;;;-4.91;76.03
76337;BME280;65157;50.082;18.178;2024-01-11T10:40:42;100226.81;;;-4.84;76.04
76337;BME280;65157;50.082;18.178;2024-01-11T10:43:10;100224.79;;;-4.78;75.84
76337;BME280;65157;50.082;18.178;2024-01-11T10:45:37;100230.07;;;-4.69;75.92
76337;BME280;65157;50.082;18.178;2024-01-11T10:50:37;100213.27;;;-4.52;75.62
76337;BME280;65157;50.082;18.178;2024-01-11T10:53:20;100209.89;;;-4.44;75.33
76337;BME280;65157;50.082;18.178;2024-01-11T10:55:48;100196.59;;;-4.40;74.75
76337;BME280;65157;50.082;18.178;2024-01-11T10:58:16;100192.80;;;-4.35;74.68
76337;BME280;65157;50.082;18.178;2024-01-11T11:00:45;100179.89;;;-4.30;74.60
76337;BME280;65157;50.082;18.178;2024-01-11T11:03:12;100170.91;;;-4.25;74.74
76337;BME280;65157;50.082;18.178;2024-01-11T11:05:40;100165.27;;;-4.18;74.80
76337;BME280;65157;50.082;18.178;2024-01-11T11:08:09;100163.27;;;-4.10;75.15
76337;BME280;65157;50.082;18.178;2024-01-11T11:10:38;100154.63;;;-4.00;74.90
76337;BME280;65157;50.082;18.178;2024-01-11T11:13:05;100140.30;;;-3.93;74.75
76337;BME280;65157;50.082;18.178;2024-01-11T11:15:33;100134.23;;;-3.90;74.67
76337;BME280;65157;50.082;18.178;2024-01-11T11:18:02;100132.09;;;-3.86;74.73
76337;BME280;65157;50.082;18.178;2024-01-11T11:20:29;100127.95;;;-3.80;74.78
76337;BME280;65157;50.082;18.178;2024-01-11T11:23:09;100124.37;;;-3.73;74.61
76337;BME280;65157;50.082;18.178;2024-01-11T11:25:36;100118.88;;;-3.66;74.64
76337;BME280;65157;50.082;18.178;2024-01-11T11:28:04;100113.05;;;-3.59;74.80
76337;BME280;65157;50.082;18.178;2024-01-11T11:30:31;100110.50;;;-3.51;74.69
76337;BME280;65157;50.082;18.178;2024-01-11T11:33:07;100111.09;;;-3.43;74.69
76337;BME280;65157;50.082;18.178;2024-01-11T11:35:34;100110.87;;;-3.38;74.56
76337;BME280;65157;50.082;18.178;2024-01-11T11:38:01;100102.02;;;-3.33;74.47
76337;BME280;65157;50.082;18.178;2024-01-11T11:40:38;100100.48;;;-3.26;74.38
76337;BME280;65157;50.082;18.178;2024-01-11T11:43:06;100097.87;;;-3.20;74.18
76337;BME280;65157;50.082;18.178;2024-01-11T11:45:32;100095.96;;;-3.14;74.31
76337;BME280;65157;50.082;18.178;2024-01-11T11:47:59;100090.45;;;-3.07;74.48
76337;BME280;65157;50.082;18.178;2024-01-11T11:50:26;100090.43;;;-3.01;74.12
76337;BME280;65157;50.082;18.178;2024-01-11T11:52:54;100079.00;;;-2.96;74.21
76337;BME280;65157;50.082;18.178;2024-01-11T11:55:25;100072.38;;;-2.91;74.15
76337;BME280;65157;50.082;18.178;2024-01-11T11:57:52;100076.13;;;-2.86;73.88
76337;BME280;65157;50.082;18.178;2024-01-11T12:00:23;100078.39;;;-2.78;74.15
76337;BME280;65157;50.082;18.178;2024-01-11T12:02:50;100074.77;;;-2.70;73.88
76337;BME280;65157;50.082;18.178;2024-01-11T12:05:17;100070.23;;;-2.65;73.72
76337;BME280;65157;50.082;18.178;2024-01-11T12:07:44;100068.11;;;-2.60;73.66
76337;BME280;65157;50.082;18.178;2024-01-11T12:10:12;100064.92;;;-2.56;73.40
76337;BME280;65157;50.082;18.178;2024-01-11T12:12:38;100065.70;;;-2.52;73.47
76337;BME280;65157;50.082;18.178;2024-01-11T12:15:06;100063.56;;;-2.48;73.38
76337;BME280;65157;50.082;18.178;2024-01-11T12:17:32;100061.22;;;-2.44;73.19
76337;BME280;65157;50.082;18.178;2024-01-11T12:19:59;100051.23;;;-2.43;73.34
76337;BME280;65157;50.082;18.178;2024-01-11T12:22:26;100048.01;;;-2.40;73.28
76337;BME280;65157;50.082;18.178;2024-01-11T12:24:53;100050.53;;;-2.36;73.38
76337;BME280;65157;50.082;18.178;2024-01-11T12:27:19;100049.23;;;-2.31;73.48
76337;BME280;65157;50.082;18.178;2024-01-11T12:29:46;100047.83;;;-2.24;73.54
76337;BME280;65157;50.082;18.178;2024-01-11T12:32:15;100035.80;;;-2.21;73.25
76337;BME280;65157;50.082;18.178;2024-01-11T12:34:44;100036.99;;;-2.21;73.14
76337;BME280;65157;50.082;18.178;2024-01-11T12:37:11;100035.05;;;-2.16;73.29
76337;BME280;65157;50.082;18.178;2024-01-11T12:39:38;100040.11;;;-2.13;73.07